createdAt,value
2023-02-16T00:00:41.528Z,14.77
2023-02-16T00:05:44.866Z,14.82
2023-02-16T00:11:08.797Z,15.40
2023-02-16T00:16:16.754Z,14.82
2023-02-16T00:21:20.483Z,19.65
2023-02-16T00:26:25.784Z,16.10
2023-02-16T00:31:33.008Z,17.85
2023-02-16T00:36:36.599Z,18.42
2023-02-16T00:41:51.944Z,14.77
2023-02-16T00:46:57.035Z,17.77
2023-02-16T00:52:00.369Z,16.75
2023-02-16T00:57:03.941Z,16.85
2023-02-16T01:02:08.661Z,14.02
2023-02-16T01:07:31.072Z,19.70
2023-02-16T01:12:34.635Z,19.67
2023-02-16T01:17:39.384Z,14.90
2023-02-16T01:22:43.247Z,18.67
2023-02-16T01:27:47.152Z,17.88
2023-02-16T01:32:52.905Z,20.73
2023-02-16T01:37:56.223Z,15.95
2023-02-16T01:43:05.214Z,20.55
2023-02-16T01:48:20.561Z,20.60
2023-02-16T01:53:30.919Z,17.42
2023-02-16T01:58:41.019Z,18.92
2023-02-16T02:04:04.454Z,16.95
2023-02-16T02:09:11.951Z,18.10
2023-02-16T02:14:20.126Z,15.00
2023-02-16T02:19:46.525Z,18.15
2023-02-16T02:25:24.473Z,17.85
2023-02-16T02:30:43.245Z,16.88
2023-02-16T02:35:52.378Z,17.02
2023-02-16T02:41:05.685Z,19.98
2023-02-16T02:46:17.982Z,18.80
2023-02-16T02:51:33.857Z,25.98
2023-02-16T02:57:06.449Z,20.00
2023-02-16T03:02:12.135Z,20.90
2023-02-16T03:07:17.547Z,19.65
2023-02-16T03:12:39.159Z,22.98
2023-02-16T03:18:02.459Z,17.15
2023-02-16T03:23:25.408Z,19.13
2023-02-16T03:28:50.782Z,19.30
2023-02-16T03:33:55.609Z,27.40
2023-02-16T03:38:59.722Z,21.97
2023-02-16T03:44:03.052Z,19.70
2023-02-16T03:49:07.768Z,22.00
2023-02-16T03:54:11.096Z,20.50
2023-02-16T03:59:14.319Z,22.75
2023-02-16T04:04:19.301Z,29.95
2023-02-16T04:09:22.577Z,25.37
2023-02-16T04:14:25.850Z,26.38
2023-02-16T04:19:30.723Z,25.10
2023-02-16T04:24:33.995Z,25.97
2023-02-16T04:29:37.384Z,23.40
2023-02-16T04:34:42.132Z,24.70
2023-02-16T04:39:45.424Z,30.00
2023-02-16T04:44:49.063Z,22.23
2023-02-16T04:49:53.831Z,24.70
2023-02-16T04:54:57.031Z,30.73
2023-02-16T05:00:00.302Z,26.08
2023-02-16T05:05:05.090Z,29.10
2023-02-16T05:10:08.973Z,24.00
2023-02-16T05:15:12.332Z,26.17
2023-02-16T05:20:17.021Z,33.72
2023-02-16T05:25:20.539Z,32.00
2023-02-16T05:30:23.865Z,28.40
2023-02-16T05:35:28.698Z,34.50
2023-02-16T05:40:31.934Z,27.67
2023-02-16T05:45:35.387Z,28.08
2023-02-16T05:50:40.194Z,30.55
2023-02-16T05:55:45.289Z,32.33
2023-02-16T06:00:48.562Z,32.28
2023-02-16T06:05:56.176Z,29.95
2023-02-16T06:11:00.267Z,42.72
2023-02-16T06:16:04.071Z,31.08
2023-02-16T06:21:09.380Z,30.60
2023-02-16T06:26:12.709Z,24.57
2023-02-16T06:31:16.162Z,32.63
2023-02-16T06:36:21.488Z,30.08
2023-02-16T06:41:35.857Z,29.90
2023-02-16T06:46:39.530Z,29.45
2023-02-16T06:51:44.549Z,28.42
2023-02-16T06:56:47.796Z,32.75
2023-02-16T07:01:51.038Z,32.38
2023-02-16T07:06:55.738Z,27.95
2023-02-16T07:11:59.447Z,28.47
2023-02-16T07:17:04.553Z,27.52
2023-02-16T07:22:09.251Z,32.75
2023-02-16T07:27:12.553Z,35.37
2023-02-16T07:32:15.951Z,29.52
2023-02-16T07:37:20.655Z,24.98
2023-02-16T07:42:24.092Z,29.45
2023-02-16T07:47:28.496Z,30.10
2023-02-16T07:52:33.327Z,31.25
2023-02-16T07:57:36.521Z,32.20
2023-02-16T08:02:41.200Z,33.25
2023-02-16T08:07:46.888Z,27.63
2023-02-16T08:17:54.048Z,34.67
2023-02-16T08:22:59.436Z,35.80
2023-02-16T08:28:02.704Z,30.90
2023-02-16T08:33:05.949Z,29.35
2023-02-16T08:38:10.506Z,25.13
2023-02-16T08:43:13.763Z,31.20
2023-02-16T08:48:17.926Z,31.02
2023-02-16T08:53:23.583Z,38.88
2023-02-16T09:03:32.576Z,32.80
2023-02-16T09:08:38.510Z,33.05
2023-02-16T09:13:42.280Z,30.88
2023-02-16T09:18:46.055Z,28.60
2023-02-16T09:23:52.389Z,31.70
2023-02-16T09:28:56.877Z,31.73
2023-02-16T09:39:08.152Z,29.05
2023-02-16T09:44:22.162Z,29.95
2023-02-16T09:49:30.991Z,32.63
2023-02-16T09:54:43.897Z,33.47
2023-02-16T09:59:56.169Z,31.52
2023-02-16T10:05:23.415Z,29.35
2023-02-16T10:10:35.228Z,32.13
2023-02-16T10:15:42.819Z,31.48
2023-02-16T10:20:52.511Z,36.00
2023-02-16T10:26:02.900Z,37.03
2023-02-16T10:31:15.111Z,32.72
2023-02-16T10:36:27.365Z,30.58
2023-02-16T10:41:37.195Z,31.70
2023-02-16T10:46:44.820Z,35.20
2023-02-16T10:51:51.766Z,33.88
2023-02-16T10:57:01.322Z,29.95
2023-02-16T11:02:18.500Z,36.13
2023-02-16T11:07:23.726Z,33.00
2023-02-16T11:12:34.392Z,37.88
2023-02-16T11:17:50.944Z,31.05
2023-02-16T11:22:54.532Z,34.80
2023-02-16T11:28:02.022Z,33.47
2023-02-16T11:33:07.167Z,32.92
2023-02-16T11:38:27.966Z,36.78
2023-02-16T11:43:37.218Z,33.35
2023-02-16T11:48:40.442Z,33.08
2023-02-16T11:53:45.974Z,31.75
2023-02-16T11:59:05.823Z,32.42
2023-02-16T12:04:23.436Z,31.45
2023-02-16T12:09:35.220Z,27.75
2023-02-16T12:15:02.772Z,27.05
2023-02-16T12:20:19.339Z,26.02
2023-02-16T12:25:28.269Z,28.48
2023-02-16T12:30:46.446Z,29.08
2023-02-16T12:36:04.090Z,31.23
2023-02-16T12:41:22.250Z,30.40
2023-02-16T12:46:32.956Z,27.20
2023-02-16T12:51:40.416Z,31.20
2023-02-16T12:56:46.804Z,29.85
2023-02-16T13:01:53.937Z,26.77
2023-02-16T13:07:03.295Z,27.30
2023-02-16T13:12:17.209Z,32.55
2023-02-16T13:17:35.269Z,24.48
2023-02-16T13:22:55.686Z,27.45
2023-02-16T13:28:09.776Z,25.77
2023-02-16T13:33:38.499Z,27.63
2023-02-16T13:39:34.604Z,29.38
2023-02-16T13:44:44.777Z,24.60
2023-02-16T13:49:50.422Z,22.50
2023-02-16T13:54:53.908Z,26.38
2023-02-16T14:00:04.635Z,28.13
2023-02-16T14:05:26.052Z,25.77
2023-02-16T14:11:02.253Z,24.83
2023-02-16T14:16:11.547Z,27.27
2023-02-16T14:21:28.622Z,28.52
2023-02-16T14:26:33.303Z,26.05
2023-02-16T14:31:45.964Z,24.70
2023-02-16T14:37:28.028Z,24.58
2023-02-16T14:42:35.494Z,23.38
2023-02-16T14:47:48.682Z,23.55
2023-02-16T14:53:34.503Z,19.92
2023-02-16T14:58:48.843Z,29.33
2023-02-16T15:03:54.905Z,29.13
2023-02-16T15:09:01.304Z,22.85
2023-02-16T15:14:11.274Z,33.67
2023-02-16T15:19:23.199Z,25.65
2023-02-16T15:24:26.611Z,27.85
2023-02-16T15:29:31.539Z,25.08
2023-02-16T15:34:37.088Z,26.40
2023-02-16T15:45:00.779Z,25.65
2023-02-16T15:50:15.018Z,27.17
2023-02-16T15:55:19.164Z,30.83
2023-02-16T16:00:25.344Z,28.02
2023-02-16T16:05:33.060Z,28.88
2023-02-16T16:10:40.128Z,24.85
2023-02-16T16:15:49.878Z,27.75
2023-02-16T16:21:01.469Z,24.88
2023-02-16T16:26:18.842Z,23.67
2023-02-16T16:31:37.244Z,26.67
2023-02-16T16:36:47.027Z,30.52
2023-02-16T16:42:11.101Z,29.25
2023-02-16T16:47:25.509Z,27.25
2023-02-16T16:52:41.807Z,28.85
2023-02-16T16:57:45.691Z,23.60
2023-02-16T17:02:51.322Z,29.20
2023-02-16T17:13:00.154Z,27.23
2023-02-16T17:23:08.592Z,27.95
2023-02-16T17:28:12.331Z,31.15
2023-02-16T17:33:16.964Z,25.80
2023-02-16T17:38:22.295Z,24.65
2023-02-16T17:43:26.972Z,33.67
2023-02-16T17:48:31.729Z,25.30
2023-02-16T17:53:35.044Z,22.70
2023-02-16T17:58:38.245Z,28.17
2023-02-16T18:03:43.304Z,23.08
2023-02-16T18:08:46.719Z,21.00
2023-02-16T18:13:50.438Z,23.08
2023-02-16T18:18:57.274Z,22.83
2023-02-16T18:24:00.630Z,22.73
2023-02-16T18:29:05.146Z,21.23
2023-02-16T18:34:10.480Z,23.48
2023-02-16T18:39:13.813Z,24.90
2023-02-16T18:44:17.099Z,23.17
2023-02-16T18:49:21.800Z,27.73
2023-02-16T18:54:25.141Z,24.67
2023-02-16T18:59:29.062Z,23.50
2023-02-16T19:04:34.086Z,22.58
2023-02-16T19:09:37.482Z,22.00
2023-02-16T19:14:41.175Z,23.98
2023-02-16T19:19:45.871Z,29.00
2023-02-16T19:24:50.387Z,27.20
2023-02-16T19:29:53.809Z,28.15
2023-02-16T19:34:58.416Z,27.48
2023-02-16T19:40:01.602Z,24.35
2023-02-16T19:45:05.204Z,24.48
2023-02-16T19:50:11.014Z,27.55
2023-02-16T19:55:14.318Z,22.25
2023-02-16T20:00:17.781Z,21.58
2023-02-16T20:05:22.478Z,24.08
2023-02-16T20:10:25.737Z,26.30
2023-02-16T20:15:29.027Z,20.30
2023-02-16T20:20:33.619Z,30.17
2023-02-16T20:25:39.880Z,26.30
2023-02-16T20:30:43.406Z,19.20
2023-02-16T20:35:48.132Z,24.50
2023-02-16T20:40:51.366Z,24.83
2023-02-16T20:45:54.861Z,20.90
2023-02-16T20:51:02.422Z,27.13
2023-02-16T20:56:08.849Z,23.30
2023-02-16T21:01:14.783Z,22.75
2023-02-16T21:06:19.846Z,21.75
2023-02-16T21:11:23.172Z,21.20
2023-02-16T21:16:26.636Z,27.88
2023-02-16T21:21:31.621Z,24.15
2023-02-16T21:26:34.932Z,21.15
2023-02-16T21:31:38.470Z,22.20
2023-02-16T21:36:43.455Z,24.48
2023-02-16T21:41:46.817Z,20.83
2023-02-16T21:46:50.134Z,23.48
2023-02-16T21:51:56.351Z,23.75
2023-02-16T21:56:59.703Z,26.00
2023-02-16T22:02:03.230Z,22.63
2023-02-16T22:07:08.168Z,24.05
2023-02-16T22:12:11.661Z,24.57
2023-02-16T22:17:15.092Z,23.48
2023-02-16T22:22:20.199Z,27.25
2023-02-16T22:27:23.985Z,29.38
2023-02-16T22:32:27.723Z,22.30
2023-02-16T22:37:33.186Z,23.75
2023-02-16T22:42:37.257Z,24.75
2023-02-16T22:47:40.953Z,25.40
2023-02-16T22:52:45.981Z,24.15
2023-02-16T22:57:49.336Z,29.43
2023-02-16T23:02:52.696Z,22.92
2023-02-16T23:07:57.347Z,20.90
2023-02-16T23:13:00.641Z,26.85
2023-02-16T23:18:03.962Z,22.60
2023-02-16T23:23:08.526Z,25.42
2023-02-16T23:28:12.733Z,22.83
2023-02-16T23:33:16.353Z,21.48
2023-02-16T23:38:21.502Z,22.55
2023-02-16T23:43:24.849Z,28.25
2023-02-16T23:48:28.115Z,26.98
2023-02-16T23:53:32.787Z,24.77
2023-02-16T23:58:38.108Z,25.70
